メインページ
METAR-TAF:

METAR-TAF

空港 :

コペンハーゲン, デンマーク

コペンハーゲン空港

緯度: 55-37N, 経度: 012-39E, 海抜: 5m

現時点の気象観測

当レポートは13分前の23:20(UTC)に作成
西/南西の風 6kt
気温 2°C
湿度 87%
気圧 1015 hPa
視程10km以上
1,500メートル以下は雲なし、積乱雲なし

METAR: EKCH 232320Z 24006KT CAVOK 02/M00 Q1015 NOSIG

時間: 01:33 (23:33 UTC)

予報

当レポートは6時間43分前の16:50(UTC)に作成
予報は23日の 18時(UTC)から 24日の 18時(UTC)まで有効
西/北西の風 15kt
視程10km以上
高度3000ftの雲は散在している
23日の 18時(UTC)から 23日の 21時(UTC)まで徐々に
西/南西の風 10kt
24日の 02時(UTC)から 24日の 12時(UTC)まで一時的に
視程: 4000m
高度1000ftの千切れ雲あり
雨, 霧雨
24日の 04時(UTC)から 24日の 06時(UTC)まで徐々に
南西の風 20kt
24日の 14時(UTC)から 24日の 18時(UTC)まで一時的に
南西の風 20kt、最大30ktの突風を伴う
視程: 4000m
高度1400ftの千切れ雲あり
高度2000ftの雲は散在している, 積乱雲.
にわか雨

TAF: EKCH 231650Z 2318/2418 30015KT 9999 SCT030 BECMG 2318/2321 24010KT TEMPO 2402/2412 4000 RADZ BKN010 BECMG 2404/2406 22020KT TEMPO 2414/2418 22020G30KT 4000 SHRA BKN014 SCT020CB

4,000以上の空港の気象観測と天気予報(METAR報とTAF報)

利用可能な観測所は地図上に黄色い丸と赤い丸で示す。

丸の上にカーソルを重ねると観測所名を参照できる。

次にクリックすると気象観測と天気予報を参照できる。

マップの切り替え:黒色「×」印の緑ボタンをクリックして拡大、「-」印の緑ボタンをクリックして縮小、緑色の三角印をクリックして隣りの地図に切り替え


METAR-TAF: